sensor_id;sensor_type;location;lat;lon;timestamp;temperature;humidity
2907;DHT22;1463;51.070;16.998;2022-09-20T00:00:43;11.10;99.90
2907;DHT22;1463;51.070;16.998;2022-09-20T00:03:11;11.10;99.90
2907;DHT22;1463;51.070;16.998;2022-09-20T00:05:39;11.10;99.90
2907;DHT22;1463;51.070;16.998;2022-09-20T00:08:11;11.10;99.90
2907;DHT22;1463;51.070;16.998;2022-09-20T00:10:39;11.10;99.90
2907;DHT22;1463;51.070;16.998;2022-09-20T00:13:08;11.10;99.90
2907;DHT22;1463;51.070;16.998;2022-09-20T00:15:38;11.10;99.90
2907;DHT22;1463;51.070;16.998;2022-09-20T00:18:06;11.10;99.90
2907;DHT22;1463;51.070;16.998;2022-09-20T00:20:33;11.10;99.90
2907;DHT22;1463;51.070;16.998;2022-09-20T00:23:00;11.10;99.90
2907;DHT22;1463;51.070;16.998;2022-09-20T00:25:29;11.10;99.90
2907;DHT22;1463;51.070;16.998;2022-09-20T00:27:56;11.10;99.90
2907;DHT22;1463;51.070;16.998;2022-09-20T00:30:23;11.10;99.90
2907;DHT22;1463;51.070;16.998;2022-09-20T00:32:50;11.10;99.90
2907;DHT22;1463;51.070;16.998;2022-09-20T00:35:17;11.00;99.90
2907;DHT22;1463;51.070;16.998;2022-09-20T00:37:43;11.10;99.90
2907;DHT22;1463;51.070;16.998;2022-09-20T00:40:11;11.10;99.90
2907;DHT22;1463;51.070;16.998;2022-09-20T00:42:40;11.00;99.90
2907;DHT22;1463;51.070;16.998;2022-09-20T00:45:09;11.10;99.90
2907;DHT22;1463;51.070;16.998;2022-09-20T00:47:38;11.10;99.90
2907;DHT22;1463;51.070;16.998;2022-09-20T00:50:12;11.10;99.90
2907;DHT22;1463;51.070;16.998;2022-09-20T00:52:41;11.10;99.90
2907;DHT22;1463;51.070;16.998;2022-09-20T00:55:10;11.10;99.90
2907;DHT22;1463;51.070;16.998;2022-09-20T00:57:40;11.10;99.90
2907;DHT22;1463;51.070;16.998;2022-09-20T01:00:08;11.10;99.90
2907;DHT22;1463;51.070;16.998;2022-09-20T01:02:38;11.10;99.90
2907;DHT22;1463;51.070;16.998;2022-09-20T01:05:06;11.10;99.90
2907;DHT22;1463;51.070;16.998;2022-09-20T01:07:34;11.10;99.90
2907;DHT22;1463;51.070;16.998;2022-09-20T01:10:01;11.00;99.90
2907;DHT22;1463;51.070;16.998;2022-09-20T01:12:29;11.00;99.90
2907;DHT22;1463;51.070;16.998;2022-09-20T01:14:58;11.00;99.90
2907;DHT22;1463;51.070;16.998;2022-09-20T01:17:26;11.10;99.90
2907;DHT22;1463;51.070;16.998;2022-09-20T01:19:59;11.10;99.90
2907;DHT22;1463;51.070;16.998;2022-09-20T01:22:32;11.00;99.90
2907;DHT22;1463;51.070;16.998;2022-09-20T01:25:06;11.00;99.90
2907;DHT22;1463;51.070;16.998;2022-09-20T01:27:39;11.00;99.90
2907;DHT22;1463;51.070;16.998;2022-09-20T01:30:08;11.00;99.90
2907;DHT22;1463;51.070;16.998;2022-09-20T01:32:40;11.00;99.90
2907;DHT22;1463;51.070;16.998;2022-09-20T01:35:10;11.00;99.90
2907;DHT22;1463;51.070;16.998;2022-09-20T01:37:42;10.90;99.90
2907;DHT22;1463;51.070;16.998;2022-09-20T01:40:15;10.90;99.90
2907;DHT22;1463;51.070;16.998;2022-09-20T01:42:48;10.90;99.90
2907;DHT22;1463;51.070;16.998;2022-09-20T01:45:19;10.90;99.90
2907;DHT22;1463;51.070;16.998;2022-09-20T01:47:49;10.90;99.90
2907;DHT22;1463;51.070;16.998;2022-09-20T01:50:21;10.90;99.90
2907;DHT22;1463;51.070;16.998;2022-09-20T02:01:20;10.90;99.90
2907;DHT22;1463;51.070;16.998;2022-09-20T02:04:09;10.90;99.90
2907;DHT22;1463;51.070;16.998;2022-09-20T02:06:46;10.90;99.90
2907;DHT22;1463;51.070;16.998;2022-09-20T02:09:30;10.80;99.90
2907;DHT22;1463;51.070;16.998;2022-09-20T02:12:11;10.80;99.90
2907;DHT22;1463;51.070;16.998;2022-09-20T02:14:45;10.80;99.90
2907;DHT22;1463;51.070;16.998;2022-09-20T02:17:20;10.80;99.90
2907;DHT22;1463;51.070;16.998;2022-09-20T02:19:53;10.80;99.90
2907;DHT22;1463;51.070;16.998;2022-09-20T02:22:27;10.80;99.90
2907;DHT22;1463;51.070;16.998;2022-09-20T02:25:00;10.90;99.90
2907;DHT22;1463;51.070;16.998;2022-09-20T02:27:29;10.80;99.90
2907;DHT22;1463;51.070;16.998;2022-09-20T02:30:11;10.80;99.90
2907;DHT22;1463;51.070;16.998;2022-09-20T02:35:31;10.80;99.90
2907;DHT22;1463;51.070;16.998;2022-09-20T02:38:01;10.80;99.90
2907;DHT22;1463;51.070;16.998;2022-09-20T02:40:45;10.80;99.90
2907;DHT22;1463;51.070;16.998;2022-09-20T02:43:16;10.80;99.90
2907;DHT22;1463;51.070;16.998;2022-09-20T02:45:52;10.80;99.90
2907;DHT22;1463;51.070;16.998;2022-09-20T02:48:23;10.80;99.90
2907;DHT22;1463;51.070;16.998;2022-09-20T02:50:58;10.80;99.90
2907;DHT22;1463;51.070;16.998;2022-09-20T02:53:31;10.80;99.90
2907;DHT22;1463;51.070;16.998;2022-09-20T02:56:03;10.80;99.90
2907;DHT22;1463;51.070;16.998;2022-09-20T02:58:37;10.80;99.90
2907;DHT22;1463;51.070;16.998;2022-09-20T03:01:08;10.70;99.90
2907;DHT22;1463;51.070;16.998;2022-09-20T03:03:42;10.70;99.90
2907;DHT22;1463;51.070;16.998;2022-09-20T03:06:15;10.70;99.90
2907;DHT22;1463;51.070;16.998;2022-09-20T03:08:48;10.70;99.90
2907;DHT22;1463;51.070;16.998;2022-09-20T03:11:21;10.70;99.90
2907;DHT22;1463;51.070;16.998;2022-09-20T03:13:56;10.70;99.90
2907;DHT22;1463;51.070;16.998;2022-09-20T03:16:29;10.60;99.90
2907;DHT22;1463;51.070;16.998;2022-09-20T03:19:01;10.60;99.90
2907;DHT22;1463;51.070;16.998;2022-09-20T03:21:35;10.50;99.90
2907;DHT22;1463;51.070;16.998;2022-09-20T03:24:08;10.60;99.90
2907;DHT22;1463;51.070;16.998;2022-09-20T03:26:44;10.50;99.90
2907;DHT22;1463;51.070;16.998;2022-09-20T03:29:17;10.60;99.90
2907;DHT22;1463;51.070;16.998;2022-09-20T03:31:58;10.60;99.90
2907;DHT22;1463;51.070;16.998;2022-09-20T03:34:37;10.60;99.90
2907;DHT22;1463;51.070;16.998;2022-09-20T03:37:14;10.70;99.90
2907;DHT22;1463;51.070;16.998;2022-09-20T03:39:50;10.70;99.90
2907;DHT22;1463;51.070;16.998;2022-09-20T03:42:22;10.70;99.90
2907;DHT22;1463;51.070;16.998;2022-09-20T03:47:56;10.70;99.90
2907;DHT22;1463;51.070;16.998;2022-09-20T03:50:39;10.70;99.90
2907;DHT22;1463;51.070;16.998;2022-09-20T03:56:03;10.70;99.90
2907;DHT22;1463;51.070;16.998;2022-09-20T03:58:38;10.70;99.90
2907;DHT22;1463;51.070;16.998;2022-09-20T04:01:14;10.70;99.90
2907;DHT22;1463;51.070;16.998;2022-09-20T04:03:48;10.70;99.90
2907;DHT22;1463;51.070;16.998;2022-09-20T04:09:07;10.70;99.90
2907;DHT22;1463;51.070;16.998;2022-09-20T04:11:42;10.70;99.90
2907;DHT22;1463;51.070;16.998;2022-09-20T04:14:13;10.70;99.90
2907;DHT22;1463;51.070;16.998;2022-09-20T04:16:44;10.70;99.90
2907;DHT22;1463;51.070;16.998;2022-09-20T04:19:16;10.70;99.90
2907;DHT22;1463;51.070;16.998;2022-09-20T04:21:50;10.70;99.90
2907;DHT22;1463;51.070;16.998;2022-09-20T04:24:20;10.70;99.90
2907;DHT22;1463;51.070;16.998;2022-09-20T04:26:53;10.70;99.90
2907;DHT22;1463;51.070;16.998;2022-09-20T04:29:28;10.70;99.90
2907;DHT22;1463;51.070;16.998;2022-09-20T04:31:58;10.70;99.90
2907;DHT22;1463;51.070;16.998;2022-09-20T04:34:30;10.70;99.90
2907;DHT22;1463;51.070;16.998;2022-09-20T04:37:20;10.70;99.90
2907;DHT22;1463;51.070;16.998;2022-09-20T04:39:51;10.70;99.90
2907;DHT22;1463;51.070;16.998;2022-09-20T04:42:29;10.70;99.90
2907;DHT22;1463;51.070;16.998;2022-09-20T04:48:12;10.70;99.90
2907;DHT22;1463;51.070;16.998;2022-09-20T04:51:06;10.70;99.90
2907;DHT22;1463;51.070;16.998;2022-09-20T04:53:53;10.70;99.90
2907;DHT22;1463;51.070;16.998;2022-09-20T04:56:29;10.70;99.90
2907;DHT22;1463;51.070;16.998;2022-09-20T04:59:08;10.70;99.90
2907;DHT22;1463;51.070;16.998;2022-09-20T05:07:15;10.70;99.90
2907;DHT22;1463;51.070;16.998;2022-09-20T05:09:58;10.70;99.90
2907;DHT22;1463;51.070;16.998;2022-09-20T05:12:40;10.70;99.90
2907;DHT22;1463;51.070;16.998;2022-09-20T05:15:21;10.70;99.90
2907;DHT22;1463;51.070;16.998;2022-09-20T05:17:53;10.70;99.90
2907;DHT22;1463;51.070;16.998;2022-09-20T05:20:38;10.70;99.90
2907;DHT22;1463;51.070;16.998;2022-09-20T05:23:13;10.60;99.90
2907;DHT22;1463;51.070;16.998;2022-09-20T05:25:50;10.70;99.90
2907;DHT22;1463;51.070;16.998;2022-09-20T05:28:22;10.60;99.90
2907;DHT22;1463;51.070;16.998;2022-09-20T05:30:54;10.70;99.90
2907;DHT22;1463;51.070;16.998;2022-09-20T05:33:25;10.70;99.90
2907;DHT22;1463;51.070;16.998;2022-09-20T05:35:58;10.70;99.90
2907;DHT22;1463;51.070;16.998;2022-09-20T05:38:29;10.70;99.90
2907;DHT22;1463;51.070;16.998;2022-09-20T05:41:05;10.70;99.90
2907;DHT22;1463;51.070;16.998;2022-09-20T05:43:33;10.70;99.90
2907;DHT22;1463;51.070;16.998;2022-09-20T05:46:09;10.70;99.90
2907;DHT22;1463;51.070;16.998;2022-09-20T05:48:43;10.70;99.90
2907;DHT22;1463;51.070;16.998;2022-09-20T05:51:17;10.80;99.90
2907;DHT22;1463;51.070;16.998;2022-09-20T05:53:52;10.80;99.90
2907;DHT22;1463;51.070;16.998;2022-09-20T05:56:28;10.80;99.90
2907;DHT22;1463;51.070;16.998;2022-09-20T05:59:03;10.90;99.90
2907;DHT22;1463;51.070;16.998;2022-09-20T06:01:33;10.90;99.90
2907;DHT22;1463;51.070;16.998;2022-09-20T06:04:07;10.90;99.90
2907;DHT22;1463;51.070;16.998;2022-09-20T06:06:40;11.00;99.90
2907;DHT22;1463;51.070;16.998;2022-09-20T06:09:16;11.00;99.90
2907;DHT22;1463;51.070;16.998;2022-09-20T06:11:51;11.10;99.90
2907;DHT22;1463;51.070;16.998;2022-09-20T06:14:24;11.10;99.90
2907;DHT22;1463;51.070;16.998;2022-09-20T06:17:01;11.20;99.90
2907;DHT22;1463;51.070;16.998;2022-09-20T06:19:32;11.20;99.90
2907;DHT22;1463;51.070;16.998;2022-09-20T06:22:02;11.30;99.90
2907;DHT22;1463;51.070;16.998;2022-09-20T06:24:31;11.30;99.90
2907;DHT22;1463;51.070;16.998;2022-09-20T06:27:00;11.20;99.90
2907;DHT22;1463;51.070;16.998;2022-09-20T06:29:29;11.30;99.90
2907;DHT22;1463;51.070;16.998;2022-09-20T06:32:00;11.30;99.90
2907;DHT22;1463;51.070;16.998;2022-09-20T06:34:27;11.30;99.90
2907;DHT22;1463;51.070;16.998;2022-09-20T06:36:57;11.30;99.90
2907;DHT22;1463;51.070;16.998;2022-09-20T06:39:45;11.40;99.90
2907;DHT22;1463;51.070;16.998;2022-09-20T06:42:32;11.40;99.90
2907;DHT22;1463;51.070;16.998;2022-09-20T06:44:59;11.40;99.90
2907;DHT22;1463;51.070;16.998;2022-09-20T06:47:27;11.40;99.90
2907;DHT22;1463;51.070;16.998;2022-09-20T06:49:54;11.40;99.90
2907;DHT22;1463;51.070;16.998;2022-09-20T06:52:23;11.40;99.90
2907;DHT22;1463;51.070;16.998;2022-09-20T06:54:51;11.40;99.90
2907;DHT22;1463;51.070;16.998;2022-09-20T06:57:21;11.40;99.90
2907;DHT22;1463;51.070;16.998;2022-09-20T06:59:49;11.40;99.90
2907;DHT22;1463;51.070;16.998;2022-09-20T07:02:16;11.40;99.90
2907;DHT22;1463;51.070;16.998;2022-09-20T07:04:45;11.40;99.90
2907;DHT22;1463;51.070;16.998;2022-09-20T07:07:14;11.50;99.90
2907;DHT22;1463;51.070;16.998;2022-09-20T07:09:42;11.50;99.90
2907;DHT22;1463;51.070;16.998;2022-09-20T07:12:09;11.50;99.90
2907;DHT22;1463;51.070;16.998;2022-09-20T07:14:37;11.60;99.90
2907;DHT22;1463;51.070;16.998;2022-09-20T07:17:04;11.60;99.90
2907;DHT22;1463;51.070;16.998;2022-09-20T07:19:32;11.60;99.90
2907;DHT22;1463;51.070;16.998;2022-09-20T07:22:01;11.60;99.90
2907;DHT22;1463;51.070;16.998;2022-09-20T07:24:28;11.70;99.90
2907;DHT22;1463;51.070;16.998;2022-09-20T07:26:57;11.70;99.90
2907;DHT22;1463;51.070;16.998;2022-09-20T07:29:24;11.70;99.90
2907;DHT22;1463;51.070;16.998;2022-09-20T07:31:52;11.70;99.90
2907;DHT22;1463;51.070;16.998;2022-09-20T07:34:19;11.70;99.90
2907;DHT22;1463;51.070;16.998;2022-09-20T07:36:48;11.70;99.90
2907;DHT22;1463;51.070;16.998;2022-09-20T07:39:17;11.70;99.90
2907;DHT22;1463;51.070;16.998;2022-09-20T07:41:44;11.70;99.90
2907;DHT22;1463;51.070;16.998;2022-09-20T07:44:12;11.70;99.90
2907;DHT22;1463;51.070;16.998;2022-09-20T07:46:50;11.80;99.90
2907;DHT22;1463;51.070;16.998;2022-09-20T07:49:17;11.80;99.90
2907;DHT22;1463;51.070;16.998;2022-09-20T07:51:45;11.90;99.90
2907;DHT22;1463;51.070;16.998;2022-09-20T07:54:12;11.90;99.90
2907;DHT22;1463;51.070;16.998;2022-09-20T07:56:41;11.90;99.90
2907;DHT22;1463;51.070;16.998;2022-09-20T07:59:08;12.10;99.90
2907;DHT22;1463;51.070;16.998;2022-09-20T08:01:35;12.20;99.90
2907;DHT22;1463;51.070;16.998;2022-09-20T08:04:03;12.50;99.90
2907;DHT22;1463;51.070;16.998;2022-09-20T08:06:30;13.00;99.90
2907;DHT22;1463;51.070;16.998;2022-09-20T08:08:58;13.30;99.90
2907;DHT22;1463;51.070;16.998;2022-09-20T08:11:25;13.20;99.90
2907;DHT22;1463;51.070;16.998;2022-09-20T08:13:56;13.10;99.90
2907;DHT22;1463;51.070;16.998;2022-09-20T08:16:24;13.10;99.90
2907;DHT22;1463;51.070;16.998;2022-09-20T08:18:52;13.00;99.90
2907;DHT22;1463;51.070;16.998;2022-09-20T08:21:21;13.90;99.90
2907;DHT22;1463;51.070;16.998;2022-09-20T08:23:49;15.90;99.90
2907;DHT22;1463;51.070;16.998;2022-09-20T08:26:17;17.50;99.90
2907;DHT22;1463;51.070;16.998;2022-09-20T08:28:45;17.80;99.90
2907;DHT22;1463;51.070;16.998;2022-09-20T08:31:16;17.40;99.90
2907;DHT22;1463;51.070;16.998;2022-09-20T08:33:45;16.50;99.90
2907;DHT22;1463;51.070;16.998;2022-09-20T08:36:13;15.60;99.90
2907;DHT22;1463;51.070;16.998;2022-09-20T08:38:40;15.00;99.90
2907;DHT22;1463;51.070;16.998;2022-09-20T08:41:09;14.70;99.90
2907;DHT22;1463;51.070;16.998;2022-09-20T08:43:38;14.50;99.90
2907;DHT22;1463;51.070;16.998;2022-09-20T08:46:08;14.20;99.90
2907;DHT22;1463;51.070;16.998;2022-09-20T08:48:37;14.30;99.90
2907;DHT22;1463;51.070;16.998;2022-09-20T08:51:04;14.30;99.90
2907;DHT22;1463;51.070;16.998;2022-09-20T08:53:32;14.20;99.90
2907;DHT22;1463;51.070;16.998;2022-09-20T08:56:00;14.10;99.90
2907;DHT22;1463;51.070;16.998;2022-09-20T08:58:29;14.10;99.90
2907;DHT22;1463;51.070;16.998;2022-09-20T09:00:56;14.00;99.90
2907;DHT22;1463;51.070;16.998;2022-09-20T09:03:24;14.00;99.90
2907;DHT22;1463;51.070;16.998;2022-09-20T09:05:54;14.00;99.90
2907;DHT22;1463;51.070;16.998;2022-09-20T09:08:23;13.90;99.90
2907;DHT22;1463;51.070;16.998;2022-09-20T09:10:52;14.50;99.90
2907;DHT22;1463;51.070;16.998;2022-09-20T09:13:21;17.50;99.90
2907;DHT22;1463;51.070;16.998;2022-09-20T09:15:52;17.90;99.90
2907;DHT22;1463;51.070;16.998;2022-09-20T09:18:20;17.20;99.90
2907;DHT22;1463;51.070;16.998;2022-09-20T09:20:47;16.40;99.90
2907;DHT22;1463;51.070;16.998;2022-09-20T09:23:22;15.80;99.90
2907;DHT22;1463;51.070;16.998;2022-09-20T09:25:51;15.30;99.90
2907;DHT22;1463;51.070;16.998;2022-09-20T09:28:19;14.90;99.90
2907;DHT22;1463;51.070;16.998;2022-09-20T09:30:48;14.50;99.90
2907;DHT22;1463;51.070;16.998;2022-09-20T09:33:18;14.30;99.90
2907;DHT22;1463;51.070;16.998;2022-09-20T09:35:51;14.10;99.90
2907;DHT22;1463;51.070;16.998;2022-09-20T09:38:20;14.20;99.90
2907;DHT22;1463;51.070;16.998;2022-09-20T09:40:51;14.00;99.90
2907;DHT22;1463;51.070;16.998;2022-09-20T09:43:19;14.00;99.90
2907;DHT22;1463;51.070;16.998;2022-09-20T09:45:47;13.90;99.90
2907;DHT22;1463;51.070;16.998;2022-09-20T09:48:18;13.80;99.90
2907;DHT22;1463;51.070;16.998;2022-09-20T09:50:47;13.70;99.90
2907;DHT22;1463;51.070;16.998;2022-09-20T09:53:14;13.60;99.90
2907;DHT22;1463;51.070;16.998;2022-09-20T09:55:48;13.60;99.90
2907;DHT22;1463;51.070;16.998;2022-09-20T09:58:23;13.60;99.90
2907;DHT22;1463;51.070;16.998;2022-09-20T10:00:53;13.50;99.90
2907;DHT22;1463;51.070;16.998;2022-09-20T10:03:25;13.40;99.90
2907;DHT22;1463;51.070;16.998;2022-09-20T10:05:58;13.40;99.90
2907;DHT22;1463;51.070;16.998;2022-09-20T10:08:30;13.50;99.90
2907;DHT22;1463;51.070;16.998;2022-09-20T10:11:03;13.60;99.90
2907;DHT22;1463;51.070;16.998;2022-09-20T10:13:36;14.50;99.90
2907;DHT22;1463;51.070;16.998;2022-09-20T10:16:07;15.90;99.90
2907;DHT22;1463;51.070;16.998;2022-09-20T10:18:42;16.10;99.90
2907;DHT22;1463;51.070;16.998;2022-09-20T10:21:17;16.20;99.90
2907;DHT22;1463;51.070;16.998;2022-09-20T10:23:56;16.60;99.90
2907;DHT22;1463;51.070;16.998;2022-09-20T10:26:30;16.20;99.90
2907;DHT22;1463;51.070;16.998;2022-09-20T10:29:05;16.00;99.90
2907;DHT22;1463;51.070;16.998;2022-09-20T10:31:39;16.30;99.90
2907;DHT22;1463;51.070;16.998;2022-09-20T10:34:13;16.40;99.90
2907;DHT22;1463;51.070;16.998;2022-09-20T10:36:43;16.20;99.90
2907;DHT22;1463;51.070;16.998;2022-09-20T10:39:15;16.10;99.90
2907;DHT22;1463;51.070;16.998;2022-09-20T10:41:46;16.00;99.90
2907;DHT22;1463;51.070;16.998;2022-09-20T10:44:38;15.90;99.90
2907;DHT22;1463;51.070;16.998;2022-09-20T10:47:09;15.70;99.90
2907;DHT22;1463;51.070;16.998;2022-09-20T10:49:40;15.70;99.90
2907;DHT22;1463;51.070;16.998;2022-09-20T10:52:10;15.90;99.90
2907;DHT22;1463;51.070;16.998;2022-09-20T10:54:45;16.00;99.90
2907;DHT22;1463;51.070;16.998;2022-09-20T10:57:18;16.00;99.90
2907;DHT22;1463;51.070;16.998;2022-09-20T10:59:49;15.90;99.90
2907;DHT22;1463;51.070;16.998;2022-09-20T11:02:25;16.10;99.90
2907;DHT22;1463;51.070;16.998;2022-09-20T11:05:07;16.30;99.90
2907;DHT22;1463;51.070;16.998;2022-09-20T11:07:44;16.30;99.90
2907;DHT22;1463;51.070;16.998;2022-09-20T11:10:15;16.10;99.90
2907;DHT22;1463;51.070;16.998;2022-09-20T11:12:47;16.10;99.90
2907;DHT22;1463;51.070;16.998;2022-09-20T11:15:18;16.30;99.90
2907;DHT22;1463;51.070;16.998;2022-09-20T11:17:49;16.40;99.90
2907;DHT22;1463;51.070;16.998;2022-09-20T11:20:19;16.60;99.90
2907;DHT22;1463;51.070;16.998;2022-09-20T11:22:48;16.70;99.90
2907;DHT22;1463;51.070;16.998;2022-09-20T11:25:19;16.80;99.90
2907;DHT22;1463;51.070;16.998;2022-09-20T11:27:48;16.70;99.90
2907;DHT22;1463;51.070;16.998;2022-09-20T11:30:19;16.60;99.90
2907;DHT22;1463;51.070;16.998;2022-09-20T11:32:48;16.60;99.90
2907;DHT22;1463;51.070;16.998;2022-09-20T11:35:20;16.40;99.90
2907;DHT22;1463;51.070;16.998;2022-09-20T11:37:51;16.20;99.90
2907;DHT22;1463;51.070;16.998;2022-09-20T11:40:23;16.00;99.90
2907;DHT22;1463;51.070;16.998;2022-09-20T11:42:52;15.80;99.90
2907;DHT22;1463;51.070;16.998;2022-09-20T11:45:23;15.60;99.90
2907;DHT22;1463;51.070;16.998;2022-09-20T11:47:51;15.50;99.90
2907;DHT22;1463;51.070;16.998;2022-09-20T11:50:33;15.40;99.90
2907;DHT22;1463;51.070;16.998;2022-09-20T11:53:05;15.40;99.90
2907;DHT22;1463;51.070;16.998;2022-09-20T11:55:40;15.50;99.90
2907;DHT22;1463;51.070;16.998;2022-09-20T11:58:09;15.50;99.90
2907;DHT22;1463;51.070;16.998;2022-09-20T12:00:39;15.50;99.90
2907;DHT22;1463;51.070;16.998;2022-09-20T12:03:08;15.50;99.90
2907;DHT22;1463;51.070;16.998;2022-09-20T12:05:49;15.50;99.90
2907;DHT22;1463;51.070;16.998;2022-09-20T12:08:23;15.40;99.90
2907;DHT22;1463;51.070;16.998;2022-09-20T12:10:53;15.20;99.90
2907;DHT22;1463;51.070;16.998;2022-09-20T12:13:21;15.10;99.90
2907;DHT22;1463;51.070;16.998;2022-09-20T12:15:57;15.10;99.90
2907;DHT22;1463;51.070;16.998;2022-09-20T12:18:29;14.90;99.90
2907;DHT22;1463;51.070;16.998;2022-09-20T12:21:11;14.70;99.90
2907;DHT22;1463;51.070;16.998;2022-09-20T12:26:37;14.50;99.90
2907;DHT22;1463;51.070;16.998;2022-09-20T12:32:28;14.50;99.90
2907;DHT22;1463;51.070;16.998;2022-09-20T12:34:51;14.50;99.90
2907;DHT22;1463;51.070;16.998;2022-09-20T12:37:21;14.40;99.90
2907;DHT22;1463;51.070;16.998;2022-09-20T12:39:49;14.40;99.90
2907;DHT22;1463;51.070;16.998;2022-09-20T12:42:23;14.40;99.90
2907;DHT22;1463;51.070;16.998;2022-09-20T12:44:56;14.20;99.90
2907;DHT22;1463;51.070;16.998;2022-09-20T12:47:26;14.20;99.90
2907;DHT22;1463;51.070;16.998;2022-09-20T12:49:55;14.20;99.90
2907;DHT22;1463;51.070;16.998;2022-09-20T12:52:52;14.30;99.90
2907;DHT22;1463;51.070;16.998;2022-09-20T12:58:21;14.50;99.90
2907;DHT22;1463;51.070;16.998;2022-09-20T13:00:50;14.80;99.90
2907;DHT22;1463;51.070;16.998;2022-09-20T13:03:28;15.00;99.90
2907;DHT22;1463;51.070;16.998;2022-09-20T13:08:54;14.90;99.90
2907;DHT22;1463;51.070;16.998;2022-09-20T13:11:22;14.60;99.90
2907;DHT22;1463;51.070;16.998;2022-09-20T13:13:54;14.50;99.90
2907;DHT22;1463;51.070;16.998;2022-09-20T13:16:23;14.50;99.90
2907;DHT22;1463;51.070;16.998;2022-09-20T13:18:56;14.50;99.90
2907;DHT22;1463;51.070;16.998;2022-09-20T13:21:25;14.50;99.90
2907;DHT22;1463;51.070;16.998;2022-09-20T13:23:53;14.60;99.90
2907;DHT22;1463;51.070;16.998;2022-09-20T13:26:23;14.60;99.90
2907;DHT22;1463;51.070;16.998;2022-09-20T13:28:52;14.60;99.90
2907;DHT22;1463;51.070;16.998;2022-09-20T13:31:27;14.70;99.90
2907;DHT22;1463;51.070;16.998;2022-09-20T13:34:03;14.90;99.90
2907;DHT22;1463;51.070;16.998;2022-09-20T13:36:37;15.20;99.90
2907;DHT22;1463;51.070;16.998;2022-09-20T13:39:05;15.40;99.90
2907;DHT22;1463;51.070;16.998;2022-09-20T13:41:33;15.30;99.90
2907;DHT22;1463;51.070;16.998;2022-09-20T13:44:02;15.20;99.90
2907;DHT22;1463;51.070;16.998;2022-09-20T13:46:30;15.20;99.90
2907;DHT22;1463;51.070;16.998;2022-09-20T13:49:11;15.10;99.90
2907;DHT22;1463;51.070;16.998;2022-09-20T13:51:39;15.00;99.90
2907;DHT22;1463;51.070;16.998;2022-09-20T13:54:17;15.00;99.90
2907;DHT22;1463;51.070;16.998;2022-09-20T13:56:44;14.90;99.90
2907;DHT22;1463;51.070;16.998;2022-09-20T13:59:11;14.90;99.90
2907;DHT22;1463;51.070;16.998;2022-09-20T14:01:43;14.80;99.90
2907;DHT22;1463;51.070;16.998;2022-09-20T14:04:15;14.80;99.90
2907;DHT22;1463;51.070;16.998;2022-09-20T14:06:43;14.70;99.90
2907;DHT22;1463;51.070;16.998;2022-09-20T14:09:15;14.70;99.90
2907;DHT22;1463;51.070;16.998;2022-09-20T14:11:44;14.70;99.90
2907;DHT22;1463;51.070;16.998;2022-09-20T14:14:12;14.70;99.90
2907;DHT22;1463;51.070;16.998;2022-09-20T14:16:40;14.70;99.90
2907;DHT22;1463;51.070;16.998;2022-09-20T14:19:10;14.70;99.90
2907;DHT22;1463;51.070;16.998;2022-09-20T14:21:39;14.70;99.90
2907;DHT22;1463;51.070;16.998;2022-09-20T14:24:06;14.70;99.90
2907;DHT22;1463;51.070;16.998;2022-09-20T14:26:34;14.70;99.90
2907;DHT22;1463;51.070;16.998;2022-09-20T14:31:46;14.70;99.90
2907;DHT22;1463;51.070;16.998;2022-09-20T14:34:14;14.70;99.90
2907;DHT22;1463;51.070;16.998;2022-09-20T14:36:42;14.70;99.90
2907;DHT22;1463;51.070;16.998;2022-09-20T14:39:12;14.60;99.90
2907;DHT22;1463;51.070;16.998;2022-09-20T14:41:40;14.60;99.90
2907;DHT22;1463;51.070;16.998;2022-09-20T14:44:18;14.60;99.90
2907;DHT22;1463;51.070;16.998;2022-09-20T14:46:48;14.60;99.90
2907;DHT22;1463;51.070;16.998;2022-09-20T14:49:18;14.60;99.90
2907;DHT22;1463;51.070;16.998;2022-09-20T14:51:47;14.60;99.90
2907;DHT22;1463;51.070;16.998;2022-09-20T14:54:24;14.60;99.90
2907;DHT22;1463;51.070;16.998;2022-09-20T14:56:53;14.60;99.90
2907;DHT22;1463;51.070;16.998;2022-09-20T14:59:25;14.70;99.90
2907;DHT22;1463;51.070;16.998;2022-09-20T15:01:53;14.70;99.90
2907;DHT22;1463;51.070;16.998;2022-09-20T15:04:22;14.70;99.90
2907;DHT22;1463;51.070;16.998;2022-09-20T15:06:53;14.80;99.90
2907;DHT22;1463;51.070;16.998;2022-09-20T15:09:21;14.80;99.90
2907;DHT22;1463;51.070;16.998;2022-09-20T15:12:00;14.80;99.90
2907;DHT22;1463;51.070;16.998;2022-09-20T15:14:28;14.90;99.90
2907;DHT22;1463;51.070;16.998;2022-09-20T15:16:55;14.90;99.90
2907;DHT22;1463;51.070;16.998;2022-09-20T15:19:23;14.90;99.90
2907;DHT22;1463;51.070;16.998;2022-09-20T15:21:50;14.90;99.90
2907;DHT22;1463;51.070;16.998;2022-09-20T15:24:19;14.90;99.90
2907;DHT22;1463;51.070;16.998;2022-09-20T15:26:46;15.00;99.90
2907;DHT22;1463;51.070;16.998;2022-09-20T15:29:14;15.00;99.90
2907;DHT22;1463;51.070;16.998;2022-09-20T15:31:42;15.00;99.90
2907;DHT22;1463;51.070;16.998;2022-09-20T15:34:10;15.10;99.90
2907;DHT22;1463;51.070;16.998;2022-09-20T15:36:38;15.00;99.90
2907;DHT22;1463;51.070;16.998;2022-09-20T15:39:06;15.00;99.90
2907;DHT22;1463;51.070;16.998;2022-09-20T15:41:35;15.00;99.90
2907;DHT22;1463;51.070;16.998;2022-09-20T15:44:02;15.00;99.90
2907;DHT22;1463;51.070;16.998;2022-09-20T15:46:29;14.90;99.90
2907;DHT22;1463;51.070;16.998;2022-09-20T15:48:57;14.90;99.90
2907;DHT22;1463;51.070;16.998;2022-09-20T15:51:25;14.90;99.90
2907;DHT22;1463;51.070;16.998;2022-09-20T15:53:55;14.90;99.90
2907;DHT22;1463;51.070;16.998;2022-09-20T15:56:23;14.80;99.90
2907;DHT22;1463;51.070;16.998;2022-09-20T15:58:54;14.80;99.90
2907;DHT22;1463;51.070;16.998;2022-09-20T16:01:24;14.70;99.90
2907;DHT22;1463;51.070;16.998;2022-09-20T16:03:53;14.70;99.90
2907;DHT22;1463;51.070;16.998;2022-09-20T16:06:20;14.60;99.90
2907;DHT22;1463;51.070;16.998;2022-09-20T16:08:48;14.60;99.90
2907;DHT22;1463;51.070;16.998;2022-09-20T16:11:16;14.50;99.90
2907;DHT22;1463;51.070;16.998;2022-09-20T16:13:44;14.50;99.90
2907;DHT22;1463;51.070;16.998;2022-09-20T16:16:13;14.50;99.90
2907;DHT22;1463;51.070;16.998;2022-09-20T16:18:40;14.50;99.90
2907;DHT22;1463;51.070;16.998;2022-09-20T16:21:33;14.40;99.90
2907;DHT22;1463;51.070;16.998;2022-09-20T16:24:05;14.30;99.90
2907;DHT22;1463;51.070;16.998;2022-09-20T16:26:32;14.20;99.90
2907;DHT22;1463;51.070;16.998;2022-09-20T16:29:00;14.10;99.90
2907;DHT22;1463;51.070;16.998;2022-09-20T16:31:31;14.00;99.90
2907;DHT22;1463;51.070;16.998;2022-09-20T16:33:59;13.90;99.90
2907;DHT22;1463;51.070;16.998;2022-09-20T16:36:27;13.80;99.90
2907;DHT22;1463;51.070;16.998;2022-09-20T16:38:54;13.80;99.90
2907;DHT22;1463;51.070;16.998;2022-09-20T16:41:22;13.70;99.90
2907;DHT22;1463;51.070;16.998;2022-09-20T16:43:50;13.70;99.90
2907;DHT22;1463;51.070;16.998;2022-09-20T16:46:17;13.60;99.90
2907;DHT22;1463;51.070;16.998;2022-09-20T16:48:47;13.60;99.90
2907;DHT22;1463;51.070;16.998;2022-09-20T16:51:19;13.50;99.90
2907;DHT22;1463;51.070;16.998;2022-09-20T16:53:48;13.50;99.90